Vansant, Virginia
Current Conditions -  °F | °C
As of 7:35 AM on Friday 28 Nov 2014 (Local Time) from KJFZ Reporting Station
Light Snow Light Snow  
Wind Chill: 19°   Ceiling: 1400
Heat Index: 26°   Visibility: 10mi
Dew Point: 20°   Wind: 6mph
Humidity: 78%   Direction: 290°WNW
Pressure: 30.28"   Gusts: NA
Location:  37.23°N, 82.1°W
Report Text: KJFZ 281235Z AUTO 29005KT 10SM -SN BKN014 OVC020 M03/M07 A3028 RMK AO2 T10351069
Loading
Personal Weather Stations






























Interactive Weather Map New forecast layout! Learn more

10-Day Weather Forecast

Advertisements
Track Severe Weather on mobile